Time;durP1;ratioP1;P1;durP2;ratioP2;P2;SDS_P1;SDS_P2;PMS_P1;PMS_P2;Temp;Humidity;BMP_temperature;BMP_pressure;BME280_temperature;BME280_humidity;BME280_pressure;Samples;Min_cycle;Max_cycle;Signal;HPM_P1;HPM_P2
2023/03/09 00:00:31;;;;;;;;;;;2.30;99.90;;;;;;5006684;28;19944;-78
2023/03/09 00:02:58;;;;;;;;;;;2.30;99.90;;;;;;5004575;28;20371;-77
2023/03/09 00:05:24;;;;;;;;;;;2.30;99.90;;;;;;5005866;28;19921;-77
2023/03/09 00:07:57;;;;;;;;;;;2.20;99.90;;;;;;5007776;28;19929;-78
2023/03/09 00:10:25;;;;;;;;;;;2.30;99.90;;;;;;5008131;28;19936;-77
2023/03/09 00:12:52;;;;;;;;;;;2.30;99.90;;;;;;5007016;28;19933;-76
2023/03/09 00:15:18;;;;;;;;;;;2.30;99.90;;;;;;5000472;28;19929;-75
2023/03/09 00:17:45;;;;;;;;;;;2.30;99.90;;;;;;5000652;28;19983;-74
2023/03/09 00:20:18;;;;;;;;;;;2.40;99.90;;;;;;4999995;28;19947;-73
2023/03/09 00:22:47;;;;;;;;;;;2.50;99.90;;;;;;4983287;28;19929;-74
2023/03/09 00:25:14;;;;;;;;;;;2.40;99.90;;;;;;4983669;28;19929;-74
2023/03/09 00:27:43;;;;;;;;;;;2.50;99.90;;;;;;5002327;28;19976;-74
2023/03/09 00:30:10;;;;;;;;;;;2.40;99.90;;;;;;4983277;28;19929;-74
2023/03/09 00:32:37;;;;;;;;;;;2.50;99.90;;;;;;5004024;28;19964;-74
2023/03/09 00:35:05;;;;;;;;;;;2.50;99.90;;;;;;5004791;28;19952;-75
2023/03/09 00:37:31;;;;;;;;;;;2.40;99.90;;;;;;5003958;28;20349;-74
2023/03/09 00:39:58;;;;;;;;;;;2.30;99.90;;;;;;5000184;28;19936;-73
2023/03/09 00:42:25;;;;;;;;;;;2.40;99.90;;;;;;4999173;28;20019;-73
2023/03/09 00:44:53;;;;;;;;;;;2.20;99.90;;;;;;4999017;28;19948;-73
2023/03/09 00:47:21;;;;;;;;;;;2.20;99.90;;;;;;5002013;28;19925;-76
2023/03/09 00:49:49;;;;;;;;;;;2.10;99.90;;;;;;5005457;28;19921;-75
2023/03/09 00:52:16;;;;;;;;;;;2.10;99.90;;;;;;4990427;28;19925;-75
2023/03/09 00:54:43;;;;;;;;;;;2.20;99.90;;;;;;5005462;28;19921;-75
2023/03/09 00:57:10;;;;;;;;;;;2.10;99.90;;;;;;5003996;28;19925;-75
2023/03/09 00:59:36;;;;;;;;;;;2.10;99.90;;;;;;4988125;28;20017;-74
2023/03/09 01:02:05;;;;;;;;;;;2.10;99.90;;;;;;5004764;28;20302;-75
2023/03/09 01:04:34;;;;;;;;;;;2.10;99.90;;;;;;5003567;28;19932;-74
2023/03/09 01:07:00;;;;;;;;;;;2.00;99.90;;;;;;5002889;28;20008;-75
2023/03/09 01:09:27;;;;;;;;;;;2.00;99.90;;;;;;4982818;28;20042;-73
2023/03/09 01:11:53;;;;;;;;;;;2.10;99.90;;;;;;4996372;28;20209;-72
2023/03/09 01:14:20;;;;;;;;;;;2.10;99.90;;;;;;5002345;28;19983;-73
2023/03/09 01:16:47;;;;;;;;;;;2.00;99.90;;;;;;5003063;28;19929;-72
2023/03/09 01:19:16;;;;;;;;;;;2.00;99.90;;;;;;4985305;28;20367;-72
2023/03/09 01:21:42;;;;;;;;;;;2.00;99.90;;;;;;4984784;28;19936;-73
2023/03/09 01:24:09;;;;;;;;;;;2.10;99.90;;;;;;4984106;28;19929;-72
2023/03/09 01:26:36;;;;;;;;;;;2.10;99.90;;;;;;5002441;28;19936;-72
2023/03/09 01:29:02;;;;;;;;;;;2.10;99.90;;;;;;5001713;28;19941;-71
2023/03/09 01:31:29;;;;;;;;;;;4.10;99.90;;;;;;5004488;28;19936;-73
2023/03/09 01:33:56;;;;;;;;;;;2.00;99.90;;;;;;5002318;28;19929;-71
2023/03/09 01:36:24;;;;;;;;;;;2.10;99.90;;;;;;5003674;28;19960;-70
2023/03/09 01:38:51;;;;;;;;;;;2.20;99.90;;;;;;5003267;28;20429;-70
2023/03/09 01:41:18;;;;;;;;;;;2.10;99.90;;;;;;5001494;28;20314;-72
2023/03/09 01:43:46;;;;;;;;;;;2.10;99.90;;;;;;5001932;28;19926;-72
2023/03/09 01:46:25;;;;;;;;;;;2.10;99.90;;;;;;5001720;28;19929;-72
2023/03/09 01:48:55;;;;;;;;;;;2.10;99.90;;;;;;5001132;28;19929;-72
2023/03/09 01:51:22;;;;;;;;;;;2.10;99.90;;;;;;4982386;28;19952;-71
2023/03/09 01:53:50;;;;;;;;;;;2.00;99.90;;;;;;5003741;28;19925;-75
2023/03/09 01:56:19;;;;;;;;;;;2.00;99.90;;;;;;5006153;28;19928;-75
2023/03/09 01:58:49;;;;;;;;;;;2.10;99.90;;;;;;5008730;28;19929;-73
2023/03/09 02:01:16;;;;;;;;;;;2.20;99.90;;;;;;5501393;22;19915;-73
2023/03/09 02:03:46;;;;;;;;;;;2.20;99.90;;;;;;4931470;28;21462;-73
2023/03/09 02:06:15;;;;;;;;;;;2.20;99.90;;;;;;4938284;28;19980;-73
2023/03/09 02:08:49;;;;;;;;;;;2.20;99.90;;;;;;4960710;28;19937;-73
2023/03/09 02:11:18;;;;;;;;;;;2.20;99.90;;;;;;4941805;28;19961;-73
2023/03/09 02:13:47;;;;;;;;;;;2.20;99.90;;;;;;4943667;28;20234;-71
2023/03/09 02:16:14;;;;;;;;;;;2.10;99.90;;;;;;4934128;28;20311;-71
2023/03/09 02:18:41;;;;;;;;;;;2.10;99.90;;;;;;4942017;28;19930;-73
2023/03/09 02:21:12;;;;;;;;;;;2.10;99.90;;;;;;4931447;28;20494;-72
2023/03/09 02:23:44;;;;;;;;;;;2.20;99.90;;;;;;4942632;28;19981;-72
2023/03/09 02:26:14;;;;;;;;;;;2.20;99.90;;;;;;4934974;28;20076;-71
2023/03/09 02:28:43;;;;;;;;;;;2.30;99.90;;;;;;4946862;28;19933;-71
2023/03/09 02:31:10;;;;;;;;;;;2.40;99.90;;;;;;4954905;28;20582;-71
2023/03/09 02:33:37;;;;;;;;;;;2.40;99.90;;;;;;4932687;28;20237;-73
2023/03/09 02:36:04;;;;;;;;;;;2.30;99.90;;;;;;4949276;28;19930;-75
2023/03/09 02:38:36;;;;;;;;;;;2.30;99.90;;;;;;4932562;28;19957;-74
2023/03/09 02:41:07;;;;;;;;;;;2.30;99.90;;;;;;4933468;28;19930;-74
2023/03/09 02:43:36;;;;;;;;;;;2.30;99.90;;;;;;4947204;28;20074;-74
2023/03/09 02:46:06;;;;;;;;;;;2.30;99.90;;;;;;4948607;28;20736;-74
2023/03/09 02:48:36;;;;;;;;;;;2.40;99.90;;;;;;4943244;28;20032;-75
2023/03/09 02:51:05;;;;;;;;;;;2.60;99.90;;;;;;4948011;28;20025;-74
2023/03/09 02:53:32;;;;;;;;;;;2.60;99.90;;;;;;4940407;28;20324;-72
2023/03/09 02:55:59;;;;;;;;;;;2.60;99.90;;;;;;4932399;28;19930;-74
2023/03/09 02:58:26;;;;;;;;;;;2.40;99.90;;;;;;4949615;28;19932;-75
2023/03/09 03:00:53;;;;;;;;;;;2.40;99.90;;;;;;4941649;28;19931;-74
2023/03/09 03:03:21;;;;;;;;;;;2.40;99.90;;;;;;4947380;28;19930;-75
2023/03/09 03:05:49;;;;;;;;;;;2.30;99.90;;;;;;4948695;28;19936;-76
2023/03/09 03:08:16;;;;;;;;;;;2.30;99.90;;;;;;4944806;28;19941;-71
2023/03/09 03:10:43;;;;;;;;;;;2.30;99.90;;;;;;4948016;28;19930;-73
2023/03/09 03:13:11;;;;;;;;;;;2.30;99.90;;;;;;4930196;28;19931;-72
2023/03/09 03:15:37;;;;;;;;;;;2.40;99.90;;;;;;4930791;28;20352;-73
2023/03/09 03:18:04;;;;;;;;;;;2.40;99.90;;;;;;4946903;28;19953;-73
2023/03/09 03:20:33;;;;;;;;;;;2.40;99.90;;;;;;4948687;28;20061;-73
2023/03/09 03:23:01;;;;;;;;;;;2.40;99.90;;;;;;4946704;28;19930;-73
2023/03/09 03:25:37;;;;;;;;;;;2.40;99.90;;;;;;4946881;28;20029;-73
2023/03/09 03:28:05;;;;;;;;;;;2.40;99.90;;;;;;4940976;28;19934;-72
2023/03/09 03:30:34;;;;;;;;;;;2.40;99.90;;;;;;4941748;28;19930;-72
2023/03/09 03:33:01;;;;;;;;;;;2.30;99.90;;;;;;4929920;28;19931;-72
2023/03/09 03:35:31;;;;;;;;;;;2.30;99.90;;;;;;4931134;28;19930;-72
2023/03/09 03:37:59;;;;;;;;;;;2.30;99.90;;;;;;4947755;28;19938;-72
2023/03/09 03:40:27;;;;;;;;;;;2.30;99.90;;;;;;4931338;28;19930;-72
2023/03/09 03:42:58;;;;;;;;;;;2.30;99.90;;;;;;4930455;28;20609;-72
2023/03/09 03:45:25;;;;;;;;;;;2.40;99.90;;;;;;4941078;28;19937;-72
2023/03/09 03:47:52;;;;;;;;;;;2.50;99.90;;;;;;4945447;28;20475;-72
2023/03/09 03:50:19;;;;;;;;;;;2.60;99.90;;;;;;4945327;28;19931;-74
2023/03/09 03:52:56;;;;;;;;;;;2.60;99.90;;;;;;4948337;28;20094;-75
2023/03/09 03:55:24;;;;;;;;;;;2.70;99.90;;;;;;4946977;28;19930;-72
2023/03/09 03:57:51;;;;;;;;;;;2.70;99.90;;;;;;4939702;28;20018;-72
2023/03/09 04:00:19;;;;;;;;;;;2.80;99.90;;;;;;4925681;28;19937;-72
2023/03/09 04:02:46;;;;;;;;;;;2.70;99.90;;;;;;4942144;28;20012;-72
2023/03/09 04:05:22;;;;;;;;;;;2.70;99.90;;;;;;4930505;28;20314;-71
2023/03/09 04:07:49;;;;;;;;;;;2.80;99.90;;;;;;4946098;28;19930;-72
2023/03/09 04:10:16;;;;;;;;;;;2.80;99.90;;;;;;4946778;28;19961;-72
2023/03/09 04:12:47;;;;;;;;;;;2.60;99.90;;;;;;4947069;28;19930;-72
2023/03/09 04:15:14;;;;;;;;;;;2.70;99.90;;;;;;4944186;28;21207;-72
2023/03/09 04:17:41;;;;;;;;;;;2.70;99.90;;;;;;4948561;28;20785;-72
2023/03/09 04:20:09;;;;;;;;;;;2.70;99.90;;;;;;4944197;28;20445;-72
2023/03/09 04:22:36;;;;;;;;;;;2.70;99.90;;;;;;4946221;28;19957;-72
2023/03/09 04:25:03;;;;;;;;;;;2.60;99.90;;;;;;4946720;28;19936;-72
2023/03/09 04:27:30;;;;;;;;;;;2.60;99.90;;;;;;4945714;28;19937;-72
2023/03/09 04:30:06;;;;;;;;;;;2.50;99.90;;;;;;4950509;28;19930;-72
2023/03/09 04:32:34;;;;;;;;;;;2.50;99.90;;;;;;4931993;28;19934;-72
2023/03/09 04:35:06;;;;;;;;;;;2.50;99.90;;;;;;4949996;28;19934;-72
2023/03/09 04:37:35;;;;;;;;;;;2.50;99.90;;;;;;4944355;28;20037;-72
2023/03/09 04:40:05;;;;;;;;;;;2.60;99.90;;;;;;4950972;28;20402;-72
2023/03/09 04:42:32;;;;;;;;;;;2.60;99.90;;;;;;4950375;28;19937;-72
2023/03/09 04:45:00;;;;;;;;;;;2.60;99.90;;;;;;4940622;28;20419;-72
2023/03/09 04:47:28;;;;;;;;;;;2.50;99.90;;;;;;4952021;28;20308;-71
2023/03/09 04:49:55;;;;;;;;;;;2.50;99.90;;;;;;4928551;28;19931;-71
2023/03/09 04:52:21;;;;;;;;;;;2.50;99.90;;;;;;4939011;28;20478;-71
2023/03/09 04:54:48;;;;;;;;;;;2.50;99.90;;;;;;4949365;28;19930;-71
2023/03/09 04:57:15;;;;;;;;;;;2.50;99.90;;;;;;4933934;28;19952;-71
2023/03/09 04:59:43;;;;;;;;;;;2.60;99.90;;;;;;4949445;28;19938;-71
2023/03/09 05:02:10;;;;;;;;;;;2.60;99.90;;;;;;4933925;28;19930;-71
2023/03/09 05:04:45;;;;;;;;;;;2.60;99.90;;;;;;4930735;28;19933;-71
2023/03/09 05:07:12;;;;;;;;;;;2.60;99.90;;;;;;4949324;28;20572;-71
2023/03/09 05:09:39;;;;;;;;;;;2.60;99.90;;;;;;4934367;28;20496;-72
2023/03/09 05:12:06;;;;;;;;;;;2.60;99.90;;;;;;4950705;28;19930;-72
2023/03/09 05:14:35;;;;;;;;;;;2.60;99.90;;;;;;4934210;28;19973;-74
2023/03/09 05:17:03;;;;;;;;;;;2.70;99.90;;;;;;4932736;28;19930;-75
2023/03/09 05:19:30;;;;;;;;;;;2.70;99.90;;;;;;4939129;28;19937;-75
2023/03/09 05:22:01;;;;;;;;;;;2.70;99.90;;;;;;4944729;28;19949;-75
2023/03/09 05:24:28;;;;;;;;;;;2.60;99.90;;;;;;4944068;28;21284;-74
2023/03/09 05:26:56;;;;;;;;;;;2.50;99.90;;;;;;4936315;28;19934;-75
2023/03/09 05:29:26;;;;;;;;;;;2.50;99.90;;;;;;4933950;28;20036;-75
2023/03/09 05:31:55;;;;;;;;;;;2.60;99.90;;;;;;4943528;28;19930;-75
2023/03/09 05:34:22;;;;;;;;;;;2.60;99.90;;;;;;4946191;28;19958;-75
2023/03/09 05:36:49;;;;;;;;;;;2.50;99.90;;;;;;4928577;28;19929;-75
2023/03/09 05:39:22;;;;;;;;;;;2.50;99.90;;;;;;4933929;28;20395;-73
2023/03/09 05:41:49;;;;;;;;;;;2.50;99.90;;;;;;4953428;28;19926;-73
2023/03/09 05:44:22;;;;;;;;;;;2.60;99.90;;;;;;4933157;29;19922;-73
2023/03/09 05:46:49;;;;;;;;;;;2.50;99.90;;;;;;4948240;28;20390;-76
2023/03/09 05:49:16;;;;;;;;;;;2.50;99.90;;;;;;4946623;28;20543;-75
2023/03/09 05:51:43;;;;;;;;;;;2.50;99.90;;;;;;4937052;28;19933;-75
2023/03/09 05:54:10;;;;;;;;;;;2.50;99.90;;;;;;4934556;29;20005;-73
2023/03/09 05:56:41;;;;;;;;;;;2.50;99.90;;;;;;4934282;29;20306;-73
2023/03/09 05:59:08;;;;;;;;;;;2.60;99.90;;;;;;4951074;29;19934;-73
2023/03/09 06:01:35;;;;;;;;;;;2.70;99.90;;;;;;4933510;29;19933;-73
2023/03/09 06:04:31;;;;;;;;;;;2.70;99.90;;;;;;4943768;28;19988;-73
2023/03/09 06:07:02;;;;;;;;;;;2.80;99.90;;;;;;4956247;28;19958;-73
2023/03/09 06:09:36;;;;;;;;;;;2.70;99.90;;;;;;4953521;28;19930;-73
2023/03/09 06:12:07;;;;;;;;;;;2.60;99.90;;;;;;4949485;29;19926;-73
2023/03/09 06:14:34;;;;;;;;;;;2.70;99.90;;;;;;4950072;29;19973;-73
2023/03/09 06:17:01;;;;;;;;;;;2.60;99.90;;;;;;4932910;29;20336;-74
2023/03/09 06:19:28;;;;;;;;;;;2.60;99.90;;;;;;4932311;29;19969;-73
2023/03/09 06:21:55;;;;;;;;;;;2.60;99.90;;;;;;4932627;28;19928;-73
2023/03/09 06:24:22;;;;;;;;;;;2.70;99.90;;;;;;4933005;29;19926;-73
2023/03/09 06:26:49;;;;;;;;;;;2.70;99.90;;;;;;4933439;29;19926;-73
2023/03/09 06:29:22;;;;;;;;;;;2.70;99.90;;;;;;4932194;29;20041;-75
2023/03/09 06:31:49;;;;;;;;;;;2.70;99.90;;;;;;4949930;29;20017;-73
2023/03/09 06:34:18;;;;;;;;;;;2.70;99.90;;;;;;4939228;28;19932;-73
2023/03/09 06:36:45;;;;;;;;;;;2.70;99.90;;;;;;4952186;28;19926;-74
2023/03/09 06:39:13;;;;;;;;;;;2.80;99.90;;;;;;4932528;28;19929;-73
2023/03/09 06:41:40;;;;;;;;;;;2.80;99.90;;;;;;4933241;29;20380;-74
2023/03/09 06:44:13;;;;;;;;;;;2.90;99.90;;;;;;4949877;28;19929;-74
2023/03/09 06:46:44;;;;;;;;;;;2.90;99.90;;;;;;4933071;29;20340;-72
2023/03/09 06:49:13;;;;;;;;;;;;;;;;;;4934480;29;19933;-73
2023/03/09 06:51:39;;;;;;;;;;;3.20;99.90;;;;;;4935077;29;19926;-72
2023/03/09 06:54:06;;;;;;;;;;;3.20;99.90;;;;;;4930104;28;20498;-74
2023/03/09 06:56:38;;;;;;;;;;;3.30;99.90;;;;;;4954743;28;19930;-73
2023/03/09 06:59:06;;;;;;;;;;;3.40;99.90;;;;;;4951354;28;19949;-75
2023/03/09 07:01:34;;;;;;;;;;;3.60;99.90;;;;;;4955660;28;19927;-75
2023/03/09 07:04:03;;;;;;;;;;;3.60;99.90;;;;;;4961011;28;19926;-73
2023/03/09 07:06:30;;;;;;;;;;;3.60;99.90;;;;;;4954154;29;19934;-75
2023/03/09 07:08:57;;;;;;;;;;;3.60;99.90;;;;;;4941234;29;19923;-74
2023/03/09 07:11:24;;;;;;;;;;;3.60;99.90;;;;;;4953132;29;19930;-74
2023/03/09 07:13:50;;;;;;;;;;;3.70;99.90;;;;;;4953445;28;20293;-75
2023/03/09 07:16:17;;;;;;;;;;;3.80;99.90;;;;;;4940318;28;19923;-75
2023/03/09 07:18:44;;;;;;;;;;;3.90;99.90;;;;;;4955557;28;19926;-75
2023/03/09 07:21:12;;;;;;;;;;;3.90;99.90;;;;;;4952883;28;19926;-75
2023/03/09 07:23:38;;;;;;;;;;;2.30;99.90;;;;;;4951320;28;19950;-75
2023/03/09 07:26:05;;;;;;;;;;;3.90;99.90;;;;;;4949680;29;19927;-75
2023/03/09 07:28:33;;;;;;;;;;;3.80;99.90;;;;;;4949086;29;19937;-75
2023/03/09 07:31:00;;;;;;;;;;;3.80;99.90;;;;;;4949842;29;19974;-75
2023/03/09 07:33:27;;;;;;;;;;;3.80;99.90;;;;;;4934716;28;19922;-75
2023/03/09 07:35:54;;;;;;;;;;;3.90;99.90;;;;;;4946684;28;19933;-75
2023/03/09 07:38:22;;;;;;;;;;;4.00;99.90;;;;;;4932738;28;19942;-75
2023/03/09 07:40:51;;;;;;;;;;;4.00;99.90;;;;;;4944683;28;19927;-75
2023/03/09 07:43:17;;;;;;;;;;;4.10;99.90;;;;;;4946739;28;19946;-75
2023/03/09 07:45:51;;;;;;;;;;;4.00;99.90;;;;;;4932019;28;19930;-76
2023/03/09 07:48:18;;;;;;;;;;;4.10;99.90;;;;;;4952068;28;19923;-74
2023/03/09 07:50:45;;;;;;;;;;;4.20;99.90;;;;;;4936295;29;20311;-75
2023/03/09 07:53:12;;;;;;;;;;;4.20;99.90;;;;;;4930890;28;19930;-75
2023/03/09 07:55:40;;;;;;;;;;;4.30;99.90;;;;;;4948552;28;19930;-75
2023/03/09 07:58:06;;;;;;;;;;;4.30;99.90;;;;;;4948222;28;20495;-75
2023/03/09 08:00:33;;;;;;;;;;;4.40;99.90;;;;;;4951455;28;19926;-75
2023/03/09 08:03:03;;;;;;;;;;;4.50;99.90;;;;;;4948188;29;20407;-74
2023/03/09 08:05:29;;;;;;;;;;;4.60;99.90;;;;;;4951262;28;19933;-75
2023/03/09 08:07:56;;;;;;;;;;;4.60;99.90;;;;;;4951879;28;19926;-75
2023/03/09 08:10:23;;;;;;;;;;;4.70;99.90;;;;;;4948510;29;19926;-75
2023/03/09 08:12:51;;;;;;;;;;;4.70;99.90;;;;;;4934031;29;20543;-75
2023/03/09 08:15:20;;;;;;;;;;;4.70;99.90;;;;;;4954913;28;20012;-75
2023/03/09 08:17:47;;;;;;;;;;;4.70;99.90;;;;;;4952837;29;19989;-75
2023/03/09 08:20:14;;;;;;;;;;;4.80;99.90;;;;;;4948880;29;20291;-75
2023/03/09 08:22:40;;;;;;;;;;;4.90;99.90;;;;;;4948857;28;19934;-75
2023/03/09 08:25:09;;;;;;;;;;;4.90;99.90;;;;;;4940427;28;20287;-75
2023/03/09 08:27:39;;;;;;;;;;;4.90;99.90;;;;;;4948695;28;19930;-75
2023/03/09 08:30:08;;;;;;;;;;;4.90;99.90;;;;;;4948977;29;19922;-75
2023/03/09 08:32:35;;;;;;;;;;;4.90;99.90;;;;;;4944443;28;19930;-75
2023/03/09 08:35:02;;;;;;;;;;;4.90;99.90;;;;;;4945031;28;20377;-75
2023/03/09 08:37:28;;;;;;;;;;;5.00;99.90;;;;;;4946307;29;19922;-75
2023/03/09 08:39:56;;;;;;;;;;;5.10;99.90;;;;;;4950490;29;19927;-74
2023/03/09 08:42:22;;;;;;;;;;;5.20;99.90;;;;;;4949133;29;20516;-75
2023/03/09 08:44:49;;;;;;;;;;;5.30;99.90;;;;;;4948278;29;19949;-75
2023/03/09 08:47:17;;;;;;;;;;;5.30;99.90;;;;;;4949248;29;19922;-75
2023/03/09 08:49:44;;;;;;;;;;;5.40;99.90;;;;;;4949023;29;20407;-75
2023/03/09 08:52:11;;;;;;;;;;;5.40;99.90;;;;;;4950644;28;20549;-75
2023/03/09 08:54:38;;;;;;;;;;;5.40;99.90;;;;;;4952570;29;19926;-76
2023/03/09 08:57:04;;;;;;;;;;;5.40;99.90;;;;;;4960807;28;19934;-76
2023/03/09 08:59:31;;;;;;;;;;;5.40;99.90;;;;;;4953157;28;19941;-73
2023/03/09 09:01:58;;;;;;;;;;;5.50;99.90;;;;;;4952058;29;19926;-74
2023/03/09 09:04:28;;;;;;;;;;;5.60;99.90;;;;;;4943811;28;20344;-74
2023/03/09 09:06:55;;;;;;;;;;;5.60;99.90;;;;;;4947671;28;19933;-73
2023/03/09 09:09:21;;;;;;;;;;;5.70;99.90;;;;;;4947530;28;20307;-73
2023/03/09 09:11:48;;;;;;;;;;;5.70;99.90;;;;;;4948997;28;19989;-74
2023/03/09 09:14:15;;;;;;;;;;;5.70;99.90;;;;;;4944083;28;19926;-74
2023/03/09 09:16:42;;;;;;;;;;;5.70;99.90;;;;;;4941360;28;19926;-74
2023/03/09 09:19:09;;;;;;;;;;;5.80;99.90;;;;;;4945342;28;19958;-74
2023/03/09 09:21:37;;;;;;;;;;;5.80;99.90;;;;;;4943592;28;20352;-74
2023/03/09 09:24:04;;;;;;;;;;;5.70;99.90;;;;;;4941783;29;19934;-74
2023/03/09 09:26:31;;;;;;;;;;;5.50;99.90;;;;;;4940037;29;19927;-74
2023/03/09 09:29:00;;;;;;;;;;;5.50;99.90;;;;;;4930604;29;19927;-74
2023/03/09 09:31:27;;;;;;;;;;;5.50;99.90;;;;;;4932544;29;19970;-74
2023/03/09 09:33:58;;;;;;;;;;;5.40;99.90;;;;;;4949003;28;19929;-74
2023/03/09 09:36:25;;;;;;;;;;;5.40;99.90;;;;;;4962084;28;19970;-74
2023/03/09 09:38:54;;;;;;;;;;;5.50;99.90;;;;;;4952805;29;19927;-74
2023/03/09 09:41:23;;;;;;;;;;;5.60;99.90;;;;;;4951838;29;19933;-74
2023/03/09 09:43:51;;;;;;;;;;;5.70;99.90;;;;;;4943814;29;19986;-74
2023/03/09 09:46:20;;;;;;;;;;;5.90;99.90;;;;;;4933973;29;19934;-74
2023/03/09 09:48:48;;;;;;;;;;;6.00;99.90;;;;;;4937052;29;19927;-74
2023/03/09 09:51:18;;;;;;;;;;;6.10;99.90;;;;;;4936722;28;19937;-74
2023/03/09 09:53:50;;;;;;;;;;;6.10;99.90;;;;;;4932994;28;19926;-74
2023/03/09 09:56:22;;;;;;;;;;;6.80;99.90;;;;;;4932779;29;20400;-74
2023/03/09 09:58:50;;;;;;;;;;;6.10;99.90;;;;;;4938510;29;19926;-74
2023/03/09 10:01:21;;;;;;;;;;;6.10;99.90;;;;;;4939615;29;20426;-74
2023/03/09 10:03:50;;;;;;;;;;;6.10;99.90;;;;;;4940352;28;19922;-74
2023/03/09 10:06:18;;;;;;;;;;;6.00;99.90;;;;;;4936867;28;19979;-74
2023/03/09 10:08:46;;;;;;;;;;;5.80;99.90;;;;;;4933430;28;20660;-74
2023/03/09 10:11:16;;;;;;;;;;;5.90;99.90;;;;;;4938237;28;19973;-74
2023/03/09 10:13:46;;;;;;;;;;;5.80;99.90;;;;;;4945927;28;20425;-74
2023/03/09 10:16:16;;;;;;;;;;;5.90;99.90;;;;;;4945255;28;19941;-74
2023/03/09 10:18:44;;;;;;;;;;;5.90;99.90;;;;;;4951511;29;19922;-74
2023/03/09 10:21:14;;;;;;;;;;;5.90;99.90;;;;;;4950991;29;19933;-76
2023/03/09 10:23:42;;;;;;;;;;;5.90;99.90;;;;;;4950106;29;19926;-76
2023/03/09 10:26:16;;;;;;;;;;;5.80;99.90;;;;;;4951392;29;20734;-74
2023/03/09 10:28:44;;;;;;;;;;;5.80;99.90;;;;;;4951145;29;19929;-74
2023/03/09 10:31:15;;;;;;;;;;;6.00;99.90;;;;;;4951077;29;20609;-74
2023/03/09 10:33:44;;;;;;;;;;;6.10;99.90;;;;;;4954572;28;19922;-74
2023/03/09 10:36:15;;;;;;;;;;;6.20;99.90;;;;;;4946234;28;20546;-74
2023/03/09 10:38:42;;;;;;;;;;;6.30;99.90;;;;;;4960340;28;19922;-74
2023/03/09 10:41:14;;;;;;;;;;;6.20;99.90;;;;;;4953505;28;19926;-74
2023/03/09 10:43:41;;;;;;;;;;;6.20;99.90;;;;;;4950654;29;19993;-74
2023/03/09 10:46:11;;;;;;;;;;;6.30;99.90;;;;;;4951043;29;19926;-74
2023/03/09 10:48:39;;;;;;;;;;;6.40;99.90;;;;;;4951244;28;19985;-74
2023/03/09 10:51:09;;;;;;;;;;;6.50;99.90;;;;;;4954298;28;19926;-74
2023/03/09 10:53:37;;;;;;;;;;;6.40;99.90;;;;;;4950356;29;20123;-74
2023/03/09 10:56:05;;;;;;;;;;;6.50;99.90;;;;;;4951320;29;19927;-74
2023/03/09 10:58:32;;;;;;;;;;;6.50;99.90;;;;;;4955653;29;19934;-73
2023/03/09 11:01:00;;;;;;;;;;;6.60;99.90;;;;;;4933305;29;19922;-73
2023/03/09 11:03:31;;;;;;;;;;;6.60;99.90;;;;;;4951406;28;19922;-73
2023/03/09 11:06:11;;;;;;;;;;;6.60;99.90;;;;;;4951900;28;20009;-73
2023/03/09 11:08:37;;;;;;;;;;;6.60;99.90;;;;;;4950484;29;19929;-73
2023/03/09 11:11:06;;;;;;;;;;;6.70;99.90;;;;;;4953479;28;20372;-73
2023/03/09 11:13:33;;;;;;;;;;;6.60;99.90;;;;;;4935593;28;19930;-75
2023/03/09 11:16:07;;;;;;;;;;;6.50;99.90;;;;;;4949736;29;19923;-75
2023/03/09 11:18:34;;;;;;;;;;;6.50;99.90;;;;;;4949856;29;19926;-75
2023/03/09 11:21:01;;;;;;;;;;;6.60;99.90;;;;;;4950207;29;19933;-75
2023/03/09 11:23:32;;;;;;;;;;;6.60;99.90;;;;;;4932625;28;19922;-75
2023/03/09 11:26:05;;;;;;;;;;;6.70;99.90;;;;;;4950714;29;19933;-75
2023/03/09 11:28:36;;;;;;;;;;;6.80;99.90;;;;;;4957218;29;20459;-76
2023/03/09 11:31:03;;;;;;;;;;;6.90;99.90;;;;;;4951512;29;20343;-75
2023/03/09 11:33:31;;;;;;;;;;;6.90;99.90;;;;;;4935048;28;20029;-75
2023/03/09 11:35:59;;;;;;;;;;;6.90;99.90;;;;;;4956964;28;20028;-75
2023/03/09 11:38:27;;;;;;;;;;;6.80;99.90;;;;;;4949800;29;19926;-75
2023/03/09 11:41:00;;;;;;;;;;;6.90;99.90;;;;;;4949245;29;20517;-75
2023/03/09 11:43:28;;;;;;;;;;;6.90;99.90;;;;;;4931632;28;20415;-76
2023/03/09 11:45:57;;;;;;;;;;;7.00;99.90;;;;;;4951064;28;19932;-76
2023/03/09 11:48:25;;;;;;;;;;;7.10;99.90;;;;;;4953661;28;19926;-76
2023/03/09 11:50:56;;;;;;;;;;;7.10;99.90;;;;;;4950102;29;19926;-75
2023/03/09 11:53:25;;;;;;;;;;;7.10;99.90;;;;;;4949422;29;19927;-76
2023/03/09 11:55:54;;;;;;;;;;;7.00;99.90;;;;;;4949876;29;20296;-76
2023/03/09 11:58:24;;;;;;;;;;;7.10;99.90;;;;;;4950228;29;20405;-76
2023/03/09 12:00:53;;;;;;;;;;;7.20;99.90;;;;;;4951530;28;20248;-76
2023/03/09 12:03:20;;;;;;;;;;;7.20;99.90;;;;;;4949419;28;19950;-76
2023/03/09 12:05:50;;;;;;;;;;;7.20;99.90;;;;;;4950357;28;19998;-76
2023/03/09 12:08:20;;;;;;;;;;;7.20;99.90;;;;;;4932685;29;19985;-76
2023/03/09 12:10:49;;;;;;;;;;;7.30;99.90;;;;;;4949981;29;19930;-76
2023/03/09 12:13:18;;;;;;;;;;;7.30;99.90;;;;;;4949158;29;19927;-76
2023/03/09 12:15:49;;;;;;;;;;;7.40;99.90;;;;;;4950092;29;20300;-76
2023/03/09 12:18:18;;;;;;;;;;;7.40;99.90;;;;;;4949958;29;19930;-76
2023/03/09 12:20:50;;;;;;;;;;;7.50;99.90;;;;;;4949094;29;20423;-76
2023/03/09 12:23:35;;;;;;;;;;;7.50;99.90;;;;;;4948539;29;19933;-76
2023/03/09 12:26:03;;;;;;;;;;;7.50;99.90;;;;;;4951022;28;19926;-76
2023/03/09 12:28:31;;;;;;;;;;;7.50;99.90;;;;;;4953198;29;19936;-75
2023/03/09 12:30:59;;;;;;;;;;;7.50;99.90;;;;;;4952579;29;19944;-75
2023/03/09 12:33:44;;;;;;;;;;;7.40;99.90;;;;;;4954981;28;19930;-75
2023/03/09 12:36:21;;;;;;;;;;;7.50;99.90;;;;;;4958107;28;19930;-75
2023/03/09 12:39:08;;;;;;;;;;;7.50;99.90;;;;;;4947672;29;20387;-75
2023/03/09 12:41:50;;;;;;;;;;;7.60;99.90;;;;;;4950759;28;20403;-75
2023/03/09 12:44:42;;;;;;;;;;;7.60;99.90;;;;;;4950411;28;19937;-73
2023/03/09 12:47:21;;;;;;;;;;;7.60;99.90;;;;;;4958289;28;19933;-74
2023/03/09 12:49:48;;;;;;;;;;;7.60;99.90;;;;;;4959006;29;19926;-75
2023/03/09 12:52:15;;;;;;;;;;;;;;;;;;4953827;29;19930;-75
2023/03/09 12:54:43;;;;;;;;;;;7.70;99.90;;;;;;4953803;29;20336;-76
2023/03/09 12:57:11;;;;;;;;;;;7.70;99.90;;;;;;4953063;29;20534;-75
2023/03/09 12:59:37;;;;;;;;;;;7.60;99.90;;;;;;4952783;29;20303;-74
2023/03/09 13:02:19;;;;;;;;;;;7.60;99.90;;;;;;4952469;29;19947;-75
2023/03/09 13:05:11;;;;;;;;;;;7.60;99.90;;;;;;4958761;28;19926;-75
2023/03/09 13:07:38;;;;;;;;;;;7.60;99.90;;;;;;4952416;29;20430;-76
2023/03/09 13:10:06;;;;;;;;;;;7.60;99.90;;;;;;4952447;29;19937;-76
2023/03/09 13:12:33;;;;;;;;;;;7.50;99.90;;;;;;4952274;29;20008;-76
2023/03/09 13:15:18;;;;;;;;;;;7.50;99.90;;;;;;4952668;29;19922;-74
2023/03/09 13:18:03;;;;;;;;;;;7.50;99.90;;;;;;4952681;29;19927;-75
2023/03/09 13:20:36;;;;;;;;;;;7.30;99.90;;;;;;4935091;29;19930;-75
2023/03/09 13:23:05;;;;;;;;;;;7.30;99.90;;;;;;4934037;28;19965;-76
2023/03/09 13:25:40;;;;;;;;;;;7.30;99.90;;;;;;4952785;29;19985;-76
2023/03/09 13:28:22;;;;;;;;;;;7.40;99.90;;;;;;4952017;29;19933;-76
2023/03/09 13:30:50;;;;;;;;;;;7.30;99.90;;;;;;4952478;29;19933;-76
2023/03/09 13:33:18;;;;;;;;;;;7.20;99.90;;;;;;4951497;28;19926;-77
2023/03/09 13:35:51;;;;;;;;;;;7.10;99.90;;;;;;4952239;28;19933;-76
2023/03/09 13:38:21;;;;;;;;;;;7.10;99.90;;;;;;4965140;28;20013;-76
2023/03/09 13:40:49;;;;;;;;;;;6.90;99.90;;;;;;4952855;28;19930;-77
2023/03/09 13:43:18;;;;;;;;;;;6.90;99.90;;;;;;4952159;29;20423;-76
2023/03/09 13:45:54;;;;;;;;;;;6.80;99.90;;;;;;4953254;29;20037;-78
2023/03/09 13:48:21;;;;;;;;;;;6.70;99.90;;;;;;4958212;29;19926;-75
2023/03/09 13:50:49;;;;;;;;;;;6.60;99.90;;;;;;4953717;29;20291;-75
2023/03/09 13:53:21;;;;;;;;;;;6.60;99.90;;;;;;4955724;28;20050;-75
2023/03/09 13:55:53;;;;;;;;;;;6.60;99.90;;;;;;4952161;29;20449;-75
2023/03/09 13:58:22;;;;;;;;;;;6.70;99.90;;;;;;4951765;29;19929;-76
2023/03/09 14:00:53;;;;;;;;;;;6.80;99.90;;;;;;4951795;29;19926;-76
2023/03/09 14:03:20;;;;;;;;;;;6.80;99.90;;;;;;4952306;28;19926;-76
2023/03/09 14:05:55;;;;;;;;;;;6.80;99.90;;;;;;4952983;28;19929;-76
2023/03/09 14:08:22;;;;;;;;;;;6.80;99.90;;;;;;4933466;28;19933;-76
2023/03/09 14:10:49;;;;;;;;;;;6.80;99.90;;;;;;4945707;29;19926;-76
2023/03/09 14:13:19;;;;;;;;;;;6.90;99.90;;;;;;4950873;29;20273;-76
2023/03/09 14:15:48;;;;;;;;;;;6.90;99.90;;;;;;4951682;29;20012;-76
2023/03/09 14:18:23;;;;;;;;;;;6.90;99.90;;;;;;4949766;29;20179;-76
2023/03/09 14:20:50;;;;;;;;;;;6.70;99.90;;;;;;4945951;29;19932;-76
2023/03/09 14:23:30;;;;;;;;;;;6.60;99.90;;;;;;4934938;28;19922;-76
2023/03/09 14:25:57;;;;;;;;;;;6.50;99.90;;;;;;4951072;29;19922;-76
2023/03/09 14:28:24;;;;;;;;;;;6.50;99.90;;;;;;4950741;29;19926;-76
2023/03/09 14:30:51;;;;;;;;;;;6.50;99.90;;;;;;4951110;29;19922;-76
2023/03/09 14:33:25;;;;;;;;;;;6.50;99.90;;;;;;4950326;28;20325;-72
2023/03/09 14:36:05;;;;;;;;;;;6.40;99.90;;;;;;4944602;28;19926;-72
2023/03/09 14:38:33;;;;;;;;;;;6.50;99.90;;;;;;4951097;28;20021;-74
2023/03/09 14:41:01;;;;;;;;;;;6.60;99.90;;;;;;4951444;29;19930;-73